createdAt,value
2018-04-18T00:01:18.789Z,10.60
2018-04-18T00:03:46.544Z,10.50
2018-04-18T00:06:14.308Z,10.50
2018-04-18T00:08:42.092Z,10.30
2018-04-18T00:11:09.881Z,10.30
2018-04-18T00:13:37.650Z,10.30
2018-04-18T00:16:05.582Z,10.30
2018-04-18T00:18:33.340Z,9.80
2018-04-18T00:21:01.109Z,10.20
2018-04-18T00:23:28.919Z,10.10
2018-04-18T00:25:56.683Z,9.90
2018-04-18T00:28:24.434Z,9.80
2018-04-18T00:30:52.351Z,9.70
2018-04-18T00:33:20.161Z,9.70
2018-04-18T00:35:47.915Z,9.70
2018-04-18T00:38:15.699Z,9.70
2018-04-18T00:40:44.289Z,9.60
2018-04-18T00:43:12.112Z,9.60
2018-04-18T00:45:39.880Z,9.60
2018-04-18T00:48:07.660Z,9.60
2018-04-18T00:50:35.522Z,9.60
2018-04-18T00:53:03.289Z,9.50
2018-04-18T00:55:31.454Z,9.40
2018-04-18T00:57:59.283Z,9.40
2018-04-18T01:00:27.865Z,9.40
2018-04-18T01:02:56.414Z,9.30
2018-04-18T01:05:24.238Z,9.30
2018-04-18T01:07:52.052Z,9.30
2018-04-18T01:10:19.819Z,9.30
2018-04-18T01:12:48.470Z,9.40
2018-04-18T01:15:16.223Z,9.30
2018-04-18T01:17:43.985Z,9.40
2018-04-18T01:20:11.806Z,9.40
2018-04-18T01:22:39.560Z,9.30
2018-04-18T01:25:07.456Z,9.20
2018-04-18T01:27:35.246Z,9.20
2018-04-18T01:30:03.875Z,9.00
2018-04-18T01:32:31.732Z,8.90
2018-04-18T01:34:59.520Z,8.90
2018-04-18T01:37:27.387Z,8.90
2018-04-18T01:39:55.283Z,8.80
2018-04-18T01:42:23.908Z,8.60
2018-04-18T01:44:51.704Z,8.60
2018-04-18T01:47:19.481Z,8.60
2018-04-18T01:49:47.264Z,8.60
2018-04-18T01:52:15.860Z,8.70
2018-04-18T01:54:44.418Z,8.80
2018-04-18T01:57:12.175Z,8.80
2018-04-18T01:59:40.060Z,8.80
2018-04-18T02:02:08.628Z,8.80
2018-04-18T02:04:36.419Z,8.80
2018-04-18T02:07:05.034Z,9.00
2018-04-18T02:09:32.844Z,9.00
2018-04-18T02:12:00.616Z,9.00
2018-04-18T02:14:28.368Z,8.90
2018-04-18T02:16:56.235Z,8.70
2018-04-18T02:19:23.992Z,8.70
2018-04-18T02:21:51.737Z,8.60
2018-04-18T02:24:19.521Z,8.50
2018-04-18T02:26:47.745Z,8.60
2018-04-18T02:29:15.561Z,8.50
2018-04-18T02:31:43.353Z,8.50
2018-04-18T02:34:11.955Z,8.70
2018-04-18T02:36:40.532Z,8.70
2018-04-18T02:39:09.154Z,8.60
2018-04-18T02:41:36.958Z,8.70
2018-04-18T02:44:04.782Z,8.60
2018-04-18T02:46:32.599Z,8.50
2018-04-18T02:49:00.372Z,8.40
2018-04-18T02:51:29.561Z,8.30
2018-04-18T02:53:57.357Z,8.20
2018-04-18T02:56:25.127Z,8.20
2018-04-18T02:58:52.915Z,8.10
2018-04-18T03:01:20.812Z,8.10
2018-04-18T03:03:48.634Z,8.10
2018-04-18T03:06:16.398Z,8.30
2018-04-18T03:08:44.194Z,8.20
2018-04-18T03:11:12.001Z,8.30
2018-04-18T03:13:40.746Z,8.30
2018-04-18T03:16:08.494Z,8.30
2018-04-18T03:18:36.238Z,8.30
2018-04-18T03:21:04.166Z,8.20
2018-04-18T03:23:31.993Z,8.20
2018-04-18T03:25:59.809Z,8.20
2018-04-18T03:28:28.368Z,8.10
2018-04-18T03:30:56.160Z,8.10
2018-04-18T03:33:24.721Z,8.10
2018-04-18T03:35:52.534Z,8.10
2018-04-18T03:38:21.164Z,8.10
2018-04-18T03:40:48.957Z,8.10
2018-04-18T03:43:17.479Z,8.20
2018-04-18T03:45:45.653Z,8.20
2018-04-18T03:48:13.477Z,8.30
2018-04-18T03:50:41.226Z,8.10
2018-04-18T03:53:09.064Z,8.10
2018-04-18T03:55:36.850Z,8.00
2018-04-18T03:58:04.977Z,7.90
2018-04-18T04:00:32.732Z,7.80
2018-04-18T04:03:01.256Z,7.90
2018-04-18T04:05:29.141Z,7.90
2018-04-18T04:07:56.883Z,7.80
2018-04-18T04:10:24.767Z,7.80
2018-04-18T04:12:53.339Z,7.70
2018-04-18T04:15:21.226Z,7.70
2018-04-18T04:18:00.902Z,7.70
2018-04-18T04:20:41.114Z,7.60
2018-04-18T04:23:20.682Z,7.60
2018-04-18T04:25:48.565Z,7.70
2018-04-18T04:28:17.076Z,7.70
2018-04-18T04:30:45.809Z,7.70
2018-04-18T04:33:14.096Z,7.60
2018-04-18T04:35:41.909Z,7.50
2018-04-18T04:38:09.677Z,7.70
2018-04-18T04:40:37.509Z,7.80
2018-04-18T04:43:06.079Z,7.70
2018-04-18T04:45:33.830Z,7.70
2018-04-18T04:48:01.616Z,7.70
2018-04-18T04:50:31.462Z,7.90
2018-04-18T04:52:59.303Z,7.90
2018-04-18T04:55:27.816Z,7.90
2018-04-18T04:57:55.687Z,7.90
2018-04-18T05:00:23.441Z,8.00
2018-04-18T05:02:51.246Z,8.00
2018-04-18T05:05:19.089Z,8.30
2018-04-18T05:07:46.894Z,8.50
2018-04-18T05:10:14.879Z,8.90
2018-04-18T05:12:43.393Z,9.70
2018-04-18T05:15:11.196Z,9.70
2018-04-18T05:17:38.984Z,10.40
2018-04-18T05:20:06.750Z,11.40
2018-04-18T05:22:34.539Z,12.60
2018-04-18T05:25:03.076Z,14.70
2018-04-18T05:27:30.865Z,14.70
2018-04-18T05:29:58.666Z,15.90
2018-04-18T05:32:26.452Z,17.00
2018-04-18T05:34:54.213Z,18.30
2018-04-18T05:37:22.039Z,19.00
2018-04-18T05:39:50.564Z,19.40
2018-04-18T05:42:18.331Z,19.40
2018-04-18T05:44:46.140Z,20.60
2018-04-18T05:47:13.898Z,20.80
2018-04-18T05:49:41.764Z,21.10
2018-04-18T05:52:09.586Z,20.70
2018-04-18T05:54:37.522Z,21.10
2018-04-18T05:57:06.047Z,22.20
2018-04-18T05:59:33.866Z,22.10
2018-04-18T06:02:02.489Z,23.30
2018-04-18T06:04:30.349Z,23.20
2018-04-18T06:06:58.163Z,22.20
2018-04-18T06:09:26.758Z,22.10
2018-04-18T06:11:54.555Z,22.00
2018-04-18T06:14:22.315Z,22.60
2018-04-18T06:16:50.193Z,22.40
2018-04-18T06:19:17.992Z,22.10
2018-04-18T06:21:46.189Z,21.70
2018-04-18T06:24:14.011Z,21.10
2018-04-18T06:26:41.775Z,20.90
2018-04-18T06:29:09.558Z,21.30
2018-04-18T06:31:37.331Z,21.30
2018-04-18T06:34:05.187Z,21.40
2018-04-18T06:36:32.995Z,21.60
2018-04-18T06:39:00.757Z,21.90
2018-04-18T06:41:29.286Z,22.00
2018-04-18T06:43:57.042Z,22.50
2018-04-18T06:46:24.848Z,23.70
2018-04-18T06:48:52.622Z,25.60
2018-04-18T06:51:20.485Z,27.00
2018-04-18T06:53:49.492Z,26.40
2018-04-18T06:56:17.443Z,26.40
2018-04-18T06:58:45.182Z,26.80
2018-04-18T07:01:13.117Z,26.90
2018-04-18T07:03:41.663Z,27.10
2018-04-18T07:06:10.266Z,27.30
2018-04-18T07:08:38.189Z,27.30
2018-04-18T07:11:06.017Z,26.90
2018-04-18T07:13:34.554Z,26.60
2018-04-18T07:16:02.353Z,26.60
2018-04-18T07:18:31.020Z,26.80
2018-04-18T07:20:58.827Z,26.80
2018-04-18T07:23:27.428Z,27.70
2018-04-18T07:25:55.237Z,27.70
2018-04-18T07:28:23.008Z,27.80
2018-04-18T07:30:50.798Z,28.60
2018-04-18T07:33:19.415Z,28.60
2018-04-18T07:35:47.332Z,28.60
2018-04-18T07:38:15.090Z,28.90
2018-04-18T07:40:42.851Z,28.70
2018-04-18T07:43:10.644Z,28.20
2018-04-18T07:45:39.235Z,28.50
2018-04-18T07:48:07.794Z,28.80
2018-04-18T07:50:35.569Z,28.80
2018-04-18T07:53:04.593Z,29.60
2018-04-18T07:55:32.358Z,29.60
2018-04-18T07:58:00.207Z,29.70
2018-04-18T08:00:28.784Z,29.10
2018-04-18T08:02:57.364Z,29.30
2018-04-18T08:05:25.940Z,29.90
2018-04-18T08:07:53.688Z,29.80
2018-04-18T08:10:21.651Z,30.40
2018-04-18T08:12:49.435Z,30.30
2018-04-18T08:15:17.280Z,31.10
2018-04-18T08:17:46.409Z,30.50
2018-04-18T08:20:15.590Z,30.20
2018-04-18T08:22:44.189Z,30.50
2018-04-18T08:25:16.133Z,30.50
2018-04-18T08:27:55.696Z,30.50
2018-04-18T08:30:24.248Z,30.80
2018-04-18T08:32:52.051Z,30.70
2018-04-18T08:35:20.691Z,32.30
2018-04-18T08:37:48.443Z,32.20
2018-04-18T08:40:16.327Z,32.40
2018-04-18T08:42:44.110Z,30.90
2018-04-18T08:45:11.860Z,31.70
2018-04-18T08:47:39.704Z,32.30
2018-04-18T08:50:07.530Z,31.40
2018-04-18T08:52:36.262Z,30.80
2018-04-18T08:55:04.101Z,30.80
2018-04-18T08:57:32.677Z,29.70
2018-04-18T09:00:01.268Z,30.40
2018-04-18T09:02:29.804Z,30.70
2018-04-18T09:04:58.462Z,31.60
2018-04-18T09:07:26.280Z,31.60
2018-04-18T09:09:54.104Z,31.50
2018-04-18T09:12:21.896Z,30.10
2018-04-18T09:14:49.637Z,29.00
2018-04-18T09:17:18.189Z,29.40
2018-04-18T09:19:45.938Z,29.30
2018-04-18T09:22:14.480Z,29.90
2018-04-18T09:24:42.294Z,29.90
2018-04-18T09:27:10.903Z,30.00
2018-04-18T09:29:38.682Z,30.10
2018-04-18T09:32:06.436Z,29.30
2018-04-18T09:34:34.344Z,28.70
2018-04-18T09:37:02.146Z,28.90
2018-04-18T09:39:30.037Z,29.30
2018-04-18T09:41:57.838Z,29.40
2018-04-18T09:44:25.649Z,29.90
2018-04-18T09:46:53.439Z,29.80
2018-04-18T09:49:21.285Z,29.70
2018-04-18T09:51:50.372Z,29.50
2018-04-18T09:54:18.145Z,29.50
2018-04-18T09:56:45.991Z,29.90
2018-04-18T09:59:14.580Z,29.90
2018-04-18T10:01:43.139Z,29.80
2018-04-18T10:04:11.115Z,29.80
2018-04-18T10:06:38.908Z,29.40
2018-04-18T10:09:06.795Z,29.40
2018-04-18T10:11:35.069Z,29.10
2018-04-18T10:14:02.829Z,28.90
2018-04-18T10:16:30.613Z,28.50
2018-04-18T10:18:58.416Z,28.80
2018-04-18T10:21:26.261Z,27.90
2018-04-18T10:23:54.224Z,27.60
2018-04-18T10:26:21.969Z,28.00
2018-04-18T10:28:49.798Z,28.20
2018-04-18T10:31:18.383Z,27.90
2018-04-18T10:33:46.921Z,28.00
2018-04-18T10:36:14.772Z,28.00
2018-04-18T10:38:43.206Z,28.40
2018-04-18T10:41:11.749Z,28.20
2018-04-18T10:43:39.628Z,28.20
2018-04-18T10:46:07.505Z,27.80
2018-04-18T10:48:35.261Z,28.60
2018-04-18T10:51:03.130Z,28.10
2018-04-18T10:53:30.870Z,27.90
2018-04-18T10:55:58.633Z,28.30
2018-04-18T10:58:26.484Z,27.80
2018-04-18T11:00:54.272Z,28.20
2018-04-18T11:03:22.113Z,28.10
2018-04-18T11:05:49.931Z,28.30
2018-04-18T11:08:17.735Z,28.80
2018-04-18T11:10:46.289Z,29.40
2018-04-18T11:13:14.095Z,29.40
2018-04-18T11:15:41.932Z,29.70
2018-04-18T11:18:09.699Z,29.70
2018-04-18T11:20:37.561Z,30.00
2018-04-18T11:23:05.756Z,29.50
2018-04-18T11:25:33.617Z,29.40
2018-04-18T11:28:02.171Z,29.70
2018-04-18T11:30:30.444Z,29.70
2018-04-18T11:32:58.263Z,29.60
2018-04-18T11:35:26.036Z,29.40
2018-04-18T11:37:54.249Z,29.30
2018-04-18T11:40:22.016Z,29.70
2018-04-18T11:42:49.828Z,30.10
2018-04-18T11:45:18.370Z,29.60
2018-04-18T11:47:46.121Z,29.50
2018-04-18T11:50:14.776Z,29.10
2018-04-18T11:52:42.554Z,29.10
2018-04-18T11:55:10.314Z,28.70
2018-04-18T11:57:38.155Z,29.50
2018-04-18T12:00:06.696Z,28.40
2018-04-18T12:02:34.509Z,28.40
2018-04-18T12:05:02.322Z,28.20
2018-04-18T12:07:30.085Z,27.90
2018-04-18T12:09:57.983Z,28.00
2018-04-18T12:12:26.525Z,28.40
2018-04-18T12:14:54.333Z,28.50
2018-04-18T12:17:22.887Z,29.50
2018-04-18T12:19:50.687Z,29.50
2018-04-18T12:22:19.236Z,29.90
2018-04-18T12:24:47.034Z,29.80
2018-04-18T12:27:15.605Z,29.40
2018-04-18T12:29:43.360Z,29.40
2018-04-18T12:32:11.188Z,29.40
2018-04-18T12:34:38.996Z,30.30
2018-04-18T12:37:06.759Z,30.30
2018-04-18T12:39:34.539Z,30.30
2018-04-18T12:42:02.336Z,30.10
2018-04-18T12:44:30.146Z,29.70
2018-04-18T12:46:58.010Z,29.50
2018-04-18T12:49:26.644Z,29.00
2018-04-18T12:51:55.183Z,29.30
2018-04-18T12:54:23.044Z,29.30
2018-04-18T12:56:50.817Z,30.30
2018-04-18T12:59:18.732Z,30.30
2018-04-18T13:01:49.408Z,30.40
2018-04-18T13:04:17.217Z,30.60
2018-04-18T13:06:46.807Z,30.50
2018-04-18T13:09:14.632Z,30.40
2018-04-18T13:11:42.397Z,30.40
2018-04-18T13:14:10.305Z,29.80
2018-04-18T13:16:38.061Z,29.60
2018-04-18T13:19:05.837Z,28.90
2018-04-18T13:21:33.634Z,28.60
2018-04-18T13:24:01.432Z,28.50
2018-04-18T13:26:29.272Z,28.30
2018-04-18T13:28:57.044Z,28.50
2018-04-18T13:31:24.862Z,28.70
2018-04-18T13:33:52.654Z,29.20
2018-04-18T13:36:21.257Z,29.80
2018-04-18T13:38:49.109Z,29.80
2018-04-18T13:41:17.634Z,29.50
2018-04-18T13:43:45.404Z,29.50
2018-04-18T13:46:13.189Z,29.20
2018-04-18T13:48:40.947Z,29.10
2018-04-18T13:51:08.832Z,28.80
2018-04-18T13:53:36.681Z,28.80
2018-04-18T13:56:04.488Z,28.60
2018-04-18T13:58:33.049Z,28.70
2018-04-18T14:01:18.493Z,28.70
2018-04-18T14:03:47.935Z,28.70
2018-04-18T14:06:15.789Z,29.10
2018-04-18T14:08:43.605Z,29.70
2018-04-18T14:11:11.377Z,30.20
2018-04-18T14:13:39.650Z,30.00
2018-04-18T14:16:07.484Z,29.80
2018-04-18T14:18:36.034Z,30.30
2018-04-18T14:21:03.907Z,30.30
2018-04-18T14:23:31.783Z,30.50
2018-04-18T14:25:59.672Z,30.00
2018-04-18T14:28:28.224Z,30.90
2018-04-18T14:30:56.988Z,30.90
2018-04-18T14:33:24.821Z,31.20
2018-04-18T14:35:58.950Z,30.50
2018-04-18T14:38:26.918Z,30.50
2018-04-18T14:40:54.832Z,29.90
2018-04-18T14:43:22.627Z,29.40
2018-04-18T14:45:51.209Z,28.40
2018-04-18T14:48:19.317Z,28.40
2018-04-18T14:50:47.794Z,28.40
2018-04-18T14:53:17.035Z,28.70
2018-04-18T14:55:45.665Z,29.40
2018-04-18T14:58:13.438Z,29.30
2018-04-18T15:00:42.336Z,29.70
2018-04-18T15:03:10.401Z,30.00
2018-04-18T15:05:41.044Z,30.00
2018-04-18T15:08:09.642Z,29.90
2018-04-18T15:10:38.237Z,29.90
2018-04-18T15:13:06.025Z,29.40
2018-04-18T15:15:33.842Z,29.00
2018-04-18T15:18:02.518Z,28.50
2018-04-18T15:20:43.000Z,28.50
2018-04-18T15:23:12.209Z,28.70
2018-04-18T15:25:39.966Z,28.70
2018-04-18T15:28:08.165Z,28.80
2018-04-18T15:30:36.023Z,28.60
2018-04-18T15:33:03.800Z,28.50
2018-04-18T15:35:32.058Z,27.90
2018-04-18T15:38:01.271Z,27.90
2018-04-18T15:40:29.123Z,27.80
2018-04-18T15:43:08.348Z,27.70
2018-04-18T15:45:42.521Z,27.60
2018-04-18T15:48:19.549Z,27.70
2018-04-18T15:50:49.210Z,27.60
2018-04-18T15:53:17.101Z,27.20
2018-04-18T15:55:44.850Z,27.10
2018-04-18T15:58:12.700Z,27.00
2018-04-18T16:00:41.286Z,26.70
2018-04-18T16:05:49.160Z,26.50
2018-04-18T16:08:17.953Z,26.80
2018-04-18T16:10:45.767Z,26.90
2018-04-18T16:13:13.523Z,27.00
2018-04-18T16:15:41.339Z,26.90
2018-04-18T16:18:09.104Z,26.80
2018-04-18T16:20:37.284Z,26.70
2018-04-18T16:23:05.337Z,26.50
2018-04-18T16:25:33.232Z,26.40
2018-04-18T16:28:01.039Z,26.40
2018-04-18T16:30:42.206Z,26.40
2018-04-18T16:33:10.069Z,26.30
2018-04-18T16:35:37.945Z,26.10
2018-04-18T16:38:05.876Z,26.10
2018-04-18T16:40:34.450Z,26.10
2018-04-18T16:43:02.232Z,26.10
2018-04-18T16:45:31.052Z,26.10
2018-04-18T16:47:58.883Z,26.10
2018-04-18T16:50:27.805Z,26.00
2018-04-18T16:52:55.601Z,26.00
2018-04-18T16:55:23.421Z,25.90
2018-04-18T16:57:51.244Z,25.90
2018-04-18T17:00:19.052Z,25.90
2018-04-18T17:02:46.897Z,25.80
2018-04-18T17:05:15.535Z,25.80
2018-04-18T17:07:43.288Z,25.80
2018-04-18T17:10:11.068Z,25.80
2018-04-18T17:12:38.925Z,25.90
2018-04-18T17:15:06.738Z,25.80
2018-04-18T17:17:35.346Z,25.70
2018-04-18T17:20:03.124Z,25.60
2018-04-18T17:22:39.190Z,25.60
2018-04-18T17:25:07.992Z,25.60
2018-04-18T17:27:35.881Z,25.60
2018-04-18T17:30:03.707Z,25.50
2018-04-18T17:32:31.691Z,25.40
2018-04-18T17:34:59.435Z,25.40
2018-04-18T17:37:27.278Z,25.20
2018-04-18T17:39:55.122Z,25.10
2018-04-18T17:42:23.834Z,24.90
2018-04-18T17:44:51.938Z,24.80
2018-04-18T17:47:19.713Z,24.90
2018-04-18T17:50:06.312Z,24.90
2018-04-18T17:52:53.032Z,24.90
2018-04-18T17:55:41.688Z,24.80
2018-04-18T18:00:58.637Z,24.50
2018-04-18T18:03:27.158Z,24.20
2018-04-18T18:06:06.013Z,24.20
2018-04-18T18:08:34.514Z,24.00
2018-04-18T18:11:03.098Z,23.40
2018-04-18T18:13:31.783Z,23.20
2018-04-18T18:15:59.521Z,23.20
2018-04-18T18:18:27.473Z,22.90
2018-04-18T18:20:58.021Z,22.70
2018-04-18T18:23:28.074Z,22.50
2018-04-18T18:25:58.078Z,22.30
2018-04-18T18:28:29.708Z,22.00
2018-04-18T18:31:00.014Z,21.80
2018-04-18T18:33:29.474Z,21.50
2018-04-18T18:35:59.969Z,21.30
2018-04-18T18:38:28.029Z,21.10
2018-04-18T18:40:55.890Z,20.90
2018-04-18T18:43:24.169Z,20.80
2018-04-18T18:45:52.803Z,20.40
2018-04-18T18:48:20.615Z,20.40
2018-04-18T18:50:48.500Z,20.30
2018-04-18T18:53:16.337Z,20.10
2018-04-18T18:55:44.770Z,19.90
2018-04-18T18:58:12.758Z,19.80
2018-04-18T19:00:40.549Z,19.60
2018-04-18T19:03:08.488Z,19.50
2018-04-18T19:05:36.256Z,19.40
2018-04-18T19:08:06.820Z,19.10
2018-04-18T19:10:35.859Z,19.10
2018-04-18T19:13:04.573Z,18.80
2018-04-18T19:15:33.325Z,18.80
2018-04-18T19:18:01.672Z,18.70
2018-04-18T19:20:29.905Z,18.60
2018-04-18T19:23:04.971Z,18.50
2018-04-18T19:25:33.051Z,18.40
2018-04-18T19:28:01.908Z,18.20
2018-04-18T19:30:29.779Z,18.20
2018-04-18T19:32:58.180Z,18.10
2018-04-18T19:35:27.478Z,18.00
2018-04-18T19:37:58.080Z,17.90
2018-04-18T19:40:26.004Z,17.80
2018-04-18T19:42:54.744Z,17.70
2018-04-18T19:45:22.572Z,17.70
2018-04-18T19:47:50.347Z,17.70
2018-04-18T19:50:20.782Z,17.50
2018-04-18T19:52:49.202Z,17.50
2018-04-18T19:55:19.500Z,17.40
2018-04-18T19:57:47.329Z,17.30
2018-04-18T20:00:16.539Z,17.20
2018-04-18T20:02:45.159Z,17.10
2018-04-18T20:05:14.416Z,17.10
2018-04-18T20:07:50.211Z,17.10
2018-04-18T20:10:19.112Z,17.10
2018-04-18T20:12:47.028Z,17.00
2018-04-18T20:15:15.662Z,16.90
2018-04-18T20:17:44.361Z,16.70
2018-04-18T20:20:13.546Z,16.60
2018-04-18T20:22:42.388Z,16.60
2018-04-18T20:25:16.760Z,16.50
2018-04-18T20:27:45.785Z,16.50
2018-04-18T20:30:14.895Z,16.50
2018-04-18T20:32:42.651Z,16.50
2018-04-18T20:35:11.310Z,16.40
2018-04-18T20:37:39.908Z,16.40
2018-04-18T20:40:07.763Z,16.40
2018-04-18T20:42:35.569Z,16.40
2018-04-18T20:45:03.507Z,16.40
2018-04-18T20:47:31.518Z,16.40
2018-04-18T20:49:59.288Z,16.40
2018-04-18T20:52:27.093Z,16.40
2018-04-18T20:54:55.640Z,16.40
2018-04-18T20:57:24.629Z,16.40
2018-04-18T20:59:52.502Z,16.40
2018-04-18T21:02:20.239Z,16.50
2018-04-18T21:04:48.670Z,16.30
2018-04-18T21:07:17.922Z,16.40
2018-04-18T21:09:48.872Z,16.30
2018-04-18T21:12:18.486Z,16.30
2018-04-18T21:14:46.286Z,16.20
2018-04-18T21:17:14.732Z,16.20
2018-04-18T21:19:43.414Z,16.10
2018-04-18T21:22:11.366Z,16.10
2018-04-18T21:24:39.237Z,16.10
2018-04-18T21:27:10.084Z,16.00
2018-04-18T21:29:43.953Z,16.00
2018-04-18T21:32:32.204Z,16.00
2018-04-18T21:35:03.394Z,16.00
2018-04-18T21:37:31.323Z,16.00
2018-04-18T21:39:59.117Z,15.90
2018-04-18T21:42:27.648Z,16.00
2018-04-18T21:44:55.449Z,16.00
2018-04-18T21:47:23.204Z,15.90
2018-04-18T21:49:51.053Z,15.90
2018-04-18T21:52:18.800Z,15.90
2018-04-18T21:54:46.578Z,15.80
2018-04-18T21:57:14.353Z,15.80
2018-04-18T21:59:42.204Z,15.70
2018-04-18T22:02:09.977Z,15.70
2018-04-18T22:04:38.346Z,15.60
2018-04-18T22:07:06.179Z,15.50
2018-04-18T22:09:34.726Z,15.40
2018-04-18T22:12:02.545Z,15.40
2018-04-18T22:14:30.326Z,15.40
2018-04-18T22:16:58.147Z,15.30
2018-04-18T22:19:25.925Z,15.30
2018-04-18T22:21:54.563Z,15.30
2018-04-18T22:24:22.310Z,15.20
2018-04-18T22:26:50.060Z,15.20
2018-04-18T22:29:17.989Z,15.20
2018-04-18T22:31:46.522Z,15.10
2018-04-18T22:34:14.277Z,15.10
2018-04-18T22:36:42.147Z,15.00
2018-04-18T22:39:10.413Z,15.00
2018-04-18T22:41:38.160Z,15.00
2018-04-18T22:44:06.665Z,14.90
2018-04-18T22:46:34.462Z,14.90
2018-04-18T22:49:02.244Z,14.90
2018-04-18T22:51:30.053Z,14.80
2018-04-18T22:53:57.829Z,14.80
2018-04-18T22:56:25.621Z,14.80
2018-04-18T22:58:53.480Z,14.70
2018-04-18T23:01:21.296Z,14.70
2018-04-18T23:03:49.857Z,14.70
2018-04-18T23:06:17.629Z,14.70
2018-04-18T23:08:45.420Z,14.60
2018-04-18T23:11:13.970Z,14.60
2018-04-18T23:13:41.759Z,14.60
2018-04-18T23:16:10.278Z,14.50
2018-04-18T23:18:38.503Z,14.50
2018-04-18T23:21:06.337Z,14.50
2018-04-18T23:23:34.096Z,14.50
2018-04-18T23:26:02.377Z,14.50
2018-04-18T23:28:30.141Z,14.50
2018-04-18T23:30:57.892Z,14.40
2018-04-18T23:33:25.682Z,14.50
2018-04-18T23:35:53.664Z,14.50
2018-04-18T23:38:21.493Z,14.40
2018-04-18T23:40:49.238Z,14.40
2018-04-18T23:43:17.077Z,14.40
2018-04-18T23:45:44.892Z,14.50
2018-04-18T23:48:12.781Z,14.50
2018-04-18T23:50:40.669Z,14.50
2018-04-18T23:53:08.469Z,14.40
2018-04-18T23:55:37.040Z,14.40
2018-04-18T23:58:05.629Z,14.30
